createdAt,value
2023-04-23T00:00:21.085Z,99830.19
2023-04-23T00:03:23.059Z,99831.94
2023-04-23T00:06:24.861Z,99824.91
2023-04-23T00:09:30.732Z,99828.44
2023-04-23T00:12:33.036Z,99825.78
2023-04-23T00:15:37.323Z,99820.50
2023-04-23T00:18:38.976Z,99827.53
2023-04-23T00:21:40.637Z,99814.31
2023-04-23T00:24:42.945Z,99820.50
2023-04-23T00:27:44.859Z,99816.09
2023-04-23T00:30:47.865Z,99818.75
2023-04-23T00:33:49.659Z,99811.69
2023-04-23T00:36:51.301Z,99811.69
2023-04-23T00:39:52.987Z,99816.06
2023-04-23T00:42:56.046Z,99816.97
2023-04-23T00:46:00.113Z,99810.78
2023-04-23T00:49:02.028Z,99805.53
2023-04-23T00:52:03.934Z,99814.34
2023-04-23T00:55:06.996Z,99806.41
2023-04-23T00:58:09.027Z,99798.47
2023-04-23T01:01:12.891Z,99808.19
2023-04-23T01:04:16.355Z,99813.47
2023-04-23T01:07:18.531Z,99811.69
2023-04-23T01:10:20.981Z,99810.78
2023-04-23T01:13:22.936Z,99809.94
2023-04-23T01:16:25.993Z,99809.94
2023-04-23T01:19:27.624Z,99805.50
2023-04-23T01:22:30.729Z,99812.59
2023-04-23T01:25:32.402Z,99809.06
2023-04-23T01:28:34.915Z,99814.31
2023-04-23T01:31:36.940Z,99802.00
2023-04-23T01:34:39.802Z,99819.66
2023-04-23T01:37:44.680Z,99813.47
2023-04-23T01:40:46.557Z,99803.72
2023-04-23T01:43:48.708Z,99815.16
2023-04-23T01:46:50.885Z,99808.16
2023-04-23T01:49:52.847Z,99804.63
2023-04-23T01:52:55.909Z,99815.16
2023-04-23T01:56:00.617Z,99809.00
2023-04-23T01:59:02.464Z,99801.97
2023-04-23T02:02:04.138Z,99809.00
2023-04-23T02:05:11.293Z,99813.41
2023-04-23T02:08:14.297Z,99804.59
2023-04-23T02:11:16.002Z,99803.69
2023-04-23T02:14:17.793Z,99807.22
2023-04-23T02:17:20.523Z,99806.31
2023-04-23T02:20:22.465Z,99803.69
2023-04-23T02:23:25.694Z,99795.75
2023-04-23T02:26:27.301Z,99801.94
2023-04-23T02:29:29.014Z,99806.34
2023-04-23T02:32:30.667Z,99790.47
2023-04-23T02:35:32.504Z,99796.66
2023-04-23T02:38:35.509Z,99799.28
2023-04-23T02:41:37.162Z,99799.28
2023-04-23T02:44:39.267Z,99795.69
2023-04-23T02:47:41.462Z,99799.25
2023-04-23T02:50:43.147Z,99795.72
2023-04-23T02:53:46.229Z,99796.56
2023-04-23T02:56:47.931Z,99798.34
2023-04-23T02:59:49.637Z,99795.69
2023-04-23T03:02:51.393Z,99800.03
2023-04-23T03:05:53.880Z,99801.81
2023-04-23T03:08:56.850Z,99796.56
2023-04-23T03:11:58.473Z,99792.19
2023-04-23T03:15:00.268Z,99791.28
2023-04-23T03:18:02.024Z,99793.91
2023-04-23T03:21:04.111Z,99791.25
2023-04-23T03:24:07.454Z,99793.88
2023-04-23T03:27:09.261Z,99785.97
2023-04-23T03:30:11.821Z,99785.88
2023-04-23T03:33:13.836Z,99780.66
2023-04-23T03:36:15.547Z,99785.97
2023-04-23T03:39:18.621Z,99789.47
2023-04-23T03:42:20.259Z,99800.06
2023-04-23T03:45:21.907Z,99788.63
2023-04-23T03:48:23.934Z,99788.63
2023-04-23T03:51:25.823Z,99795.59
2023-04-23T03:54:28.782Z,99797.31
2023-04-23T03:57:30.692Z,99796.47
2023-04-23T04:00:32.672Z,99806.16
2023-04-23T04:03:34.484Z,99797.31
2023-04-23T04:06:36.288Z,99801.72
2023-04-23T04:09:39.382Z,99796.34
2023-04-23T04:12:41.045Z,99809.59
2023-04-23T04:15:42.810Z,99807.84
2023-04-23T04:18:44.561Z,99807.91
2023-04-23T04:21:46.211Z,99817.59
2023-04-23T04:24:49.220Z,99806.19
2023-04-23T04:27:50.973Z,99819.44
2023-04-23T04:30:52.978Z,99816.81
2023-04-23T04:33:54.756Z,99819.50
2023-04-23T04:36:56.668Z,99812.47
2023-04-23T04:40:00.107Z,99810.72
2023-04-23T04:43:01.839Z,99816.03
2023-04-23T04:46:04.715Z,99814.28
2023-04-23T04:49:08.657Z,99815.22
2023-04-23T04:52:10.501Z,99822.25
2023-04-23T04:55:13.480Z,99819.56
2023-04-23T04:58:15.606Z,99808.94
2023-04-23T05:01:17.744Z,99814.16
2023-04-23T05:04:19.530Z,99816.75
2023-04-23T05:07:21.211Z,99816.69
2023-04-23T05:10:24.309Z,99823.69
2023-04-23T05:13:26.128Z,99826.19
2023-04-23T05:16:27.943Z,99827.84
2023-04-23T05:19:29.656Z,99824.09
2023-04-23T05:22:31.632Z,99823.81
2023-04-23T05:25:34.777Z,99816.41
2023-04-23T05:28:36.474Z,99817.97
2023-04-23T05:31:38.157Z,99815.03
2023-04-23T05:34:40.338Z,99818.28
2023-04-23T05:37:42.499Z,99821.44
2023-04-23T05:40:45.692Z,99826.31
2023-04-23T05:43:47.506Z,99826.81
2023-04-23T05:46:49.178Z,99825.59
2023-04-23T05:49:50.862Z,99836.81
2023-04-23T05:52:52.503Z,99826.78
2023-04-23T05:55:55.755Z,99834.56
2023-04-23T05:58:57.451Z,99830.78
2023-04-23T06:01:59.754Z,99832.31
2023-04-23T06:05:01.950Z,99824.97
2023-04-23T06:08:04.133Z,99830.00
2023-04-23T06:11:07.509Z,99833.22
2023-04-23T06:14:09.153Z,99833.81
2023-04-23T06:17:10.859Z,99830.75
2023-04-23T06:20:12.583Z,99831.38
2023-04-23T06:23:14.649Z,99837.97
2023-04-23T06:26:17.701Z,99835.88
2023-04-23T06:29:19.407Z,99829.28
2023-04-23T06:32:21.760Z,99826.38
2023-04-23T06:35:23.409Z,99822.69
2023-04-23T06:38:25.098Z,99820.75
2023-04-23T06:41:28.173Z,99826.59
2023-04-23T06:44:30.089Z,99836.09
2023-04-23T06:47:31.757Z,99836.66
2023-04-23T06:50:35.056Z,99846.19
2023-04-23T06:53:36.851Z,99837.97
2023-04-23T06:56:39.871Z,99835.91
2023-04-23T06:59:41.574Z,99824.31
2023-04-23T07:02:43.401Z,99830.34
2023-04-23T07:05:45.201Z,99836.03
2023-04-23T07:08:47.153Z,99834.09
2023-04-23T07:11:50.362Z,99839.06
2023-04-23T07:14:52.356Z,99838.03
2023-04-23T07:17:54.022Z,99844.81
2023-04-23T07:20:55.976Z,99831.03
2023-04-23T07:23:58.072Z,99838.53
2023-04-23T07:27:01.090Z,99832.72
2023-04-23T07:30:03.103Z,99831.19
2023-04-23T07:33:05.009Z,99835.56
2023-04-23T07:36:06.763Z,99827.34
2023-04-23T07:39:08.716Z,99824.31
2023-04-23T07:42:12.001Z,99825.75
2023-04-23T07:45:13.664Z,99818.28
2023-04-23T07:48:15.349Z,99819.84
2023-04-23T07:51:17.085Z,99820.78
2023-04-23T07:54:18.810Z,99821.84
2023-04-23T07:57:21.862Z,99824.88
2023-04-23T08:00:23.756Z,99817.41
2023-04-23T08:03:25.674Z,99816.19
2023-04-23T08:06:27.752Z,99820.19
2023-04-23T08:09:29.659Z,99819.75
2023-04-23T08:12:33.304Z,99822.28
2023-04-23T08:15:35.037Z,99822.75
2023-04-23T08:18:36.707Z,99819.91
2023-04-23T08:21:38.401Z,99815.13
2023-04-23T08:24:40.180Z,99811.38
2023-04-23T08:27:43.214Z,99816.91
2023-04-23T08:30:44.948Z,99815.03
2023-04-23T08:33:46.676Z,99811.25
2023-04-23T08:36:48.848Z,99820.94
2023-04-23T08:39:50.794Z,99813.34
2023-04-23T08:42:59.409Z,99811.09
2023-04-23T08:46:03.354Z,99805.94
2023-04-23T08:49:07.749Z,99805.53
2023-04-23T08:52:15.904Z,99809.06
2023-04-23T08:55:18.504Z,99797.31
2023-04-23T08:58:22.091Z,99801.09
2023-04-23T09:01:24.204Z,99793.69
2023-04-23T09:04:26.300Z,99797.75
2023-04-23T09:07:28.159Z,99791.16
2023-04-23T09:10:29.860Z,99788.59
2023-04-23T09:13:34.830Z,99793.19
2023-04-23T09:16:36.793Z,99798.38
2023-04-23T09:19:39.843Z,99788.59
2023-04-23T09:22:44.352Z,99785.50
2023-04-23T09:25:47.798Z,99780.34
2023-04-23T09:28:51.588Z,99784.84
2023-04-23T09:31:55.412Z,99779.09
2023-04-23T09:34:57.584Z,99766.09
2023-04-23T09:38:00.832Z,99779.06
2023-04-23T09:41:17.305Z,99780.19
2023-04-23T09:44:21.882Z,99763.41
2023-04-23T09:47:25.167Z,99771.63
2023-04-23T09:50:33.291Z,99763.31
2023-04-23T09:53:41.278Z,99773.94
2023-04-23T09:56:43.539Z,99760.63
2023-04-23T09:59:50.162Z,99760.47
2023-04-23T10:02:54.823Z,99762.63
2023-04-23T10:06:01.669Z,99758.41
2023-04-23T10:09:04.108Z,99743.50
2023-04-23T10:12:09.780Z,99748.81
2023-04-23T10:15:23.756Z,99748.34
2023-04-23T10:18:25.626Z,99748.72
2023-04-23T10:21:39.422Z,99737.09
2023-04-23T10:24:53.067Z,99741.03
2023-04-23T10:27:56.955Z,99740.66
2023-04-23T10:31:01.191Z,99737.78
2023-04-23T10:34:04.436Z,99735.47
2023-04-23T10:37:06.429Z,99741.00
2023-04-23T10:40:13.296Z,99728.88
2023-04-23T10:43:15.164Z,99726.91
2023-04-23T10:46:31.545Z,99728.97
2023-04-23T10:49:34.338Z,99719.72
2023-04-23T10:52:36.080Z,99719.84
2023-04-23T10:55:37.755Z,99725.50
2023-04-23T10:58:49.190Z,99709.31
2023-04-23T11:01:52.455Z,99697.97
2023-04-23T11:04:55.897Z,99707.09
2023-04-23T11:11:10.814Z,99705.72
2023-04-23T11:14:13.380Z,99699.84
2023-04-23T11:17:18.312Z,99702.69
2023-04-23T11:20:21.198Z,99698.19
2023-04-23T11:23:30.508Z,99694.38
2023-04-23T11:39:57.790Z,99691.28
2023-04-23T11:42:59.475Z,99698.50
2023-04-23T11:46:01.314Z,99684.34
2023-04-23T11:52:15.187Z,99683.47
2023-04-23T11:55:17.075Z,99678.53
2023-04-23T11:58:18.687Z,99681.84
2023-04-23T12:01:20.373Z,99682.44
2023-04-23T12:04:23.816Z,99670.16
2023-04-23T12:07:33.195Z,99657.72
2023-04-23T12:10:42.678Z,99664.06
2023-04-23T12:13:45.397Z,99667.53
2023-04-23T12:16:48.550Z,99661.59
2023-04-23T12:19:50.086Z,99668.63
2023-04-23T12:22:52.936Z,99658.09
2023-04-23T12:25:55.204Z,99661.56
2023-04-23T12:28:58.964Z,99654.09
2023-04-23T12:32:00.718Z,99642.34
2023-04-23T12:35:02.392Z,99632.47
2023-04-23T12:38:06.384Z,99634.75
2023-04-23T12:41:08.478Z,99632.47
2023-04-23T12:44:10.589Z,99632.78
2023-04-23T12:47:12.200Z,99635.19
2023-04-23T12:50:13.889Z,99628.28
2023-04-23T12:53:18.654Z,99634.56
2023-04-23T12:56:20.693Z,99627.97
2023-04-23T12:59:22.334Z,99621.66
2023-04-23T13:02:25.485Z,99616.13
2023-04-23T13:05:27.363Z,99610.91
2023-04-23T13:08:30.366Z,99608.38
2023-04-23T13:11:32.211Z,99610.09
2023-04-23T13:14:34.194Z,99604.88
2023-04-23T13:17:36.753Z,99604.41
2023-04-23T13:20:38.976Z,99598.16
2023-04-23T13:23:42.270Z,99593.16
2023-04-23T13:26:44.001Z,99595.53
2023-04-23T13:29:45.685Z,99586.66
2023-04-23T13:32:47.620Z,99581.91
2023-04-23T13:35:49.596Z,99580.63
2023-04-23T13:38:52.685Z,99566.28
2023-04-23T13:45:01.238Z,99572.47
2023-04-23T13:48:03.136Z,99573.72
2023-04-23T13:51:09.052Z,99562.25
2023-04-23T13:54:20.713Z,99570.47
2023-04-23T13:57:22.604Z,99555.72
2023-04-23T14:00:28.641Z,99554.75
2023-04-23T14:03:30.592Z,99547.78
2023-04-23T14:06:32.615Z,99544.41
2023-04-23T14:09:36.290Z,99545.00
2023-04-23T14:12:38.392Z,99544.41
2023-04-23T14:15:40.447Z,99537.22
2023-04-23T14:18:42.647Z,99537.22
2023-04-23T14:21:45.203Z,99533.13
2023-04-23T14:24:51.319Z,99540.88
2023-04-23T14:27:56.884Z,99531.41
2023-04-23T14:31:00.561Z,99522.50
2023-04-23T14:34:02.565Z,99531.47
2023-04-23T14:37:05.205Z,99520.75
2023-04-23T14:40:10.164Z,99522.50
2023-04-23T14:43:15.796Z,99513.44
2023-04-23T14:46:17.754Z,99494.50
2023-04-23T14:49:19.837Z,99522.09
2023-04-23T14:52:21.860Z,99501.53
2023-04-23T14:55:25.015Z,99509.88
2023-04-23T14:58:26.531Z,99514.44
2023-04-23T15:01:29.119Z,99516.09
2023-04-23T15:04:31.088Z,99515.97
2023-04-23T15:07:33.173Z,99510.44
2023-04-23T15:10:36.757Z,99507.94
2023-04-23T15:13:44.730Z,99517.91
2023-04-23T15:16:49.292Z,99511.69
2023-04-23T15:19:52.593Z,99498.59
2023-04-23T15:22:54.716Z,99511.94
2023-04-23T15:25:58.173Z,99505.03
2023-04-23T15:29:00.225Z,99510.59
2023-04-23T15:32:01.922Z,99499.94
2023-04-23T15:35:04.207Z,99499.09
2023-04-23T15:38:05.914Z,99493.47
2023-04-23T15:41:10.926Z,99494.97
2023-04-23T15:44:12.639Z,99493.00
2023-04-23T15:47:14.354Z,99484.81
2023-04-23T15:50:16.262Z,99489.88
2023-04-23T15:53:18.181Z,99492.84
2023-04-23T15:56:24.450Z,99479.75
2023-04-23T15:59:26.409Z,99480.94
2023-04-23T16:02:28.649Z,99481.22
2023-04-23T16:05:31.561Z,99480.00
2023-04-23T16:08:33.600Z,99473.91
2023-04-23T16:11:41.540Z,99452.19
2023-04-23T16:14:43.987Z,99474.06
2023-04-23T16:17:49.295Z,99454.81
2023-04-23T16:20:51.372Z,99429.75
2023-04-23T16:23:55.983Z,99467.06
2023-04-23T16:27:17.957Z,99474.47
2023-04-23T16:30:19.988Z,99467.97
2023-04-23T16:33:21.760Z,99468.16
2023-04-23T16:36:24.246Z,99471.06
2023-04-23T16:39:26.395Z,99463.53
2023-04-23T16:42:29.891Z,99458.56
2023-04-23T16:45:31.635Z,99456.97
2023-04-23T16:48:33.790Z,99462.34
2023-04-23T16:51:35.810Z,99459.13
2023-04-23T16:54:38.221Z,99463.28
2023-04-23T16:57:41.700Z,99457.69
2023-04-23T17:00:51.221Z,99443.00
2023-04-23T17:03:53.240Z,99456.66
2023-04-23T17:06:55.816Z,99456.28
2023-04-23T17:09:57.679Z,99456.94
2023-04-23T17:13:01.919Z,99455.72
2023-04-23T17:16:04.032Z,99452.66
2023-04-23T17:19:06.492Z,99450.63
2023-04-23T17:22:09.255Z,99444.97
2023-04-23T17:25:12.599Z,99449.75
2023-04-23T17:28:17.111Z,99447.66
2023-04-23T17:31:19.777Z,99450.09
2023-04-23T17:34:22.093Z,99442.72
2023-04-23T17:37:24.513Z,99450.50
2023-04-23T17:40:27.352Z,99449.34
2023-04-23T17:43:35.476Z,99456.00
2023-04-23T17:46:38.105Z,99450.19
2023-04-23T17:49:40.701Z,99459.47
2023-04-23T17:52:43.927Z,99458.91
2023-04-23T17:55:46.561Z,99462.81
2023-04-23T17:58:51.853Z,99453.47
2023-04-23T18:01:54.753Z,99456.44
2023-04-23T18:04:57.767Z,99455.84
2023-04-23T18:08:00.307Z,99451.25
2023-04-23T18:11:03.998Z,99467.28
2023-04-23T18:14:11.175Z,99472.06
2023-04-23T18:17:13.585Z,99466.16
2023-04-23T18:20:15.837Z,99472.75
2023-04-23T18:23:18.591Z,99473.13
2023-04-23T18:26:20.788Z,99469.91
2023-04-23T18:29:24.982Z,99474.69
2023-04-23T18:32:34.046Z,99473.31
2023-04-23T18:35:37.752Z,99480.66
2023-04-23T18:38:44.544Z,99478.38
2023-04-23T18:41:47.801Z,99488.34
2023-04-23T18:44:51.818Z,99490.38
2023-04-23T18:47:59.825Z,99480.03
2023-04-23T18:51:06.314Z,99489.06
2023-04-23T18:54:09.966Z,99495.53
2023-04-23T18:57:12.702Z,99493.09
2023-04-23T19:00:20.296Z,99486.22
2023-04-23T19:03:26.768Z,99501.50
2023-04-23T19:06:31.063Z,99496.34
2023-04-23T19:09:33.379Z,99500.19
2023-04-23T19:12:35.733Z,99496.81
2023-04-23T19:15:40.128Z,99492.69
2023-04-23T19:18:42.889Z,99497.41
2023-04-23T19:21:46.446Z,99496.72
2023-04-23T19:24:48.975Z,99495.13
2023-04-23T19:27:51.524Z,99500.66
2023-04-23T19:30:59.345Z,99494.63
2023-04-23T19:34:05.059Z,99493.19
2023-04-23T19:37:07.803Z,99489.78
2023-04-23T19:40:10.037Z,99491.66
2023-04-23T19:43:12.839Z,99489.94
2023-04-23T19:46:16.465Z,99495.28
2023-04-23T19:49:18.447Z,99499.78
2023-04-23T19:52:23.105Z,99490.94
2023-04-23T19:55:26.030Z,99498.25
2023-04-23T19:58:29.676Z,99483.34
2023-04-23T20:01:33.443Z,99479.72
2023-04-23T20:04:35.599Z,99483.34
2023-04-23T20:07:37.878Z,99485.13
2023-04-23T20:10:39.721Z,99479.81
2023-04-23T20:13:41.527Z,99471.94
2023-04-23T20:16:44.652Z,99478.09
2023-04-23T20:19:46.480Z,99482.47
2023-04-23T20:22:48.691Z,99489.56
2023-04-23T20:25:51.227Z,99476.28
2023-04-23T20:28:53.810Z,99477.97
2023-04-23T20:31:57.152Z,99477.16
2023-04-23T20:34:58.833Z,99462.94
2023-04-23T20:38:01.256Z,99470.06
2023-04-23T20:41:02.985Z,99472.81
2023-04-23T20:44:05.033Z,99469.31
2023-04-23T20:47:08.061Z,99471.09
2023-04-23T20:50:10.206Z,99470.25
2023-04-23T20:53:12.166Z,99471.09
2023-04-23T20:56:13.861Z,99462.22
2023-04-23T20:59:15.544Z,99457.78
2023-04-23T21:02:18.842Z,99466.63
2023-04-23T21:05:20.656Z,99442.00
2023-04-23T21:08:22.305Z,99464.81
2023-04-23T21:11:24.259Z,99462.13
2023-04-23T21:14:26.339Z,99462.97
2023-04-23T21:17:29.734Z,99460.47
2023-04-23T21:20:31.508Z,99455.28
2023-04-23T21:23:33.239Z,99443.84
2023-04-23T21:26:34.968Z,99451.72
2023-04-23T21:29:36.670Z,99435.84
2023-04-23T21:32:39.877Z,99435.69
2023-04-23T21:35:41.631Z,99433.09
2023-04-23T21:38:43.624Z,99427.72
2023-04-23T21:41:45.302Z,99420.69
2023-04-23T21:44:47.501Z,99415.41
2023-04-23T21:47:50.820Z,99427.78
2023-04-23T21:50:52.705Z,99419.81
2023-04-23T21:53:54.810Z,99429.56
2023-04-23T21:56:56.665Z,99421.59
2023-04-23T21:59:58.421Z,99411.09
2023-04-23T22:03:01.886Z,99416.34
2023-04-23T22:06:03.720Z,99414.59
2023-04-23T22:09:05.420Z,99409.34
2023-04-23T22:12:07.790Z,99408.59
2023-04-23T22:15:11.547Z,99399.72
2023-04-23T22:18:14.638Z,99399.75
2023-04-23T22:21:16.354Z,99397.09
2023-04-23T22:24:18.014Z,99387.41
2023-04-23T22:27:19.990Z,99386.53
2023-04-23T22:30:21.862Z,99375.16
2023-04-23T22:33:24.895Z,99378.56
2023-04-23T22:36:26.576Z,99376.69
2023-04-23T22:39:28.254Z,99357.38
2023-04-23T22:42:30.153Z,99369.63
2023-04-23T22:45:32.057Z,99359.84
2023-04-23T22:48:35.071Z,99360.81
2023-04-23T22:51:36.736Z,99360.81
2023-04-23T22:54:38.771Z,99356.41
2023-04-23T22:57:40.521Z,99351.09
2023-04-23T23:00:42.305Z,99349.28
2023-04-23T23:03:45.446Z,99343.97
2023-04-23T23:06:47.660Z,99345.59
2023-04-23T23:09:49.530Z,99346.41
2023-04-23T23:12:51.446Z,99335.69
2023-04-23T23:15:53.398Z,99337.38
2023-04-23T23:18:56.537Z,99337.28
2023-04-23T23:21:58.470Z,99328.41
2023-04-23T23:25:00.661Z,99327.50
2023-04-23T23:28:02.311Z,99323.06
2023-04-23T23:31:04.026Z,99304.72
2023-04-23T23:34:07.126Z,99325.81
2023-04-23T23:37:08.780Z,99323.25
2023-04-23T23:40:11.236Z,99326.81
2023-04-23T23:43:12.967Z,99320.69
2023-04-23T23:46:14.705Z,99310.31
2023-04-23T23:49:17.749Z,99326.09
2023-04-23T23:52:19.418Z,99316.34
2023-04-23T23:55:21.187Z,99311.09
2023-04-23T23:58:23.158Z,99315.38
